Albany, Vermont
Current Conditions -  °F | °C
As of 11:15 AM on Thursday 18 Dec 2014 (Local Time) from KEFK Reporting Station
Haze Haze  
Wind Chill: -1°   Ceiling: 2400
Heat Index: -1°   Visibility: 5mi
Dew Point: -3°   Wind: 0mph
Humidity: 90%   Direction: NA
Pressure: 29.77"   Gusts: NA
Location:  44.73°N, 72.38°W
Report Text: KEFK 181615Z AUTO 00000KT 5SM BR SCT013 BKN024 OVC030 M01/M02 A2977 RMK AO2 T10111025
Loading
Personal Weather Stations






























Interactive Weather Map New forecast layout! Learn more

10-Day Weather Forecast

Advertisements
Track Severe Weather on mobile